Main page
METAR-TAF:

METAR-TAF

Airports :

Araraquara Airport

Araraquara, São Paulo, Brazil

latitude: 21-48-16S, longitude: 048-08-25W, elevation: 711 m

Current weather observation

The report was made 8 hours and 15 minutes ago, at 20:00 UTC
Wind 5 kt from the North
Temperature 25°C
Humidity 65%
Pressure 1014 hPa
Visibility 10 km or more
Broken clouds at a height of 3500 ft

METAR: SBAQ 182000Z 36005KT 9999 BKN035 25/18 Q1014

Time: 01:15 (04:15 UTC)


TAF: missing

Weather observations and forecasts of more than 4000 airports (METAR and TAF reports).

The available stations are represented by yellow and red dots on the map.

Hover mouse over dot to see the name of the station.

Then click to see weather observations and forecasts.

To change the map : click on the green buttons with a black cross to zoom in, on the green button with a dash to zoom out, or on the green arrows for adjacent maps.


METAR-TAF: